Time;durP1;ratioP1;P1;durP2;ratioP2;P2;SDS_P1;SDS_P2;PMS_P1;PMS_P2;Temp;Humidity;BMP_temperature;BMP_pressure;BME280_temperature;BME280_humidity;BME280_pressure;Samples;Min_cycle;Max_cycle;Signal;HPM_P1;HPM_P2
2023/03/10 00:01:16;;;;;;;63.95;27.50;;;;;;;11.36;92.77;99608.75;4940364;29;20047;-72
2023/03/10 00:03:45;;;;;;;50.75;26.67;;;;;;;10.99;93.23;99611.47;4918562;29;20431;-71
2023/03/10 00:06:16;;;;;;;52.08;26.45;;;;;;;11.00;94.32;99613.91;4917879;29;20049;-71
2023/03/10 00:08:44;;;;;;;56.65;27.35;;;;;;;11.06;93.37;99611.06;4918167;29;20066;-71
2023/03/10 00:11:12;;;;;;;54.72;25.77;;;;;;;10.96;94.45;99601.13;4919517;29;20060;-72
2023/03/10 00:13:40;;;;;;;55.90;26.35;;;;;;;11.05;93.77;99598.47;4918540;29;20055;-72
2023/03/10 00:16:16;;;;;;;54.22;27.42;;;;;;;11.06;93.77;99594.63;4925974;29;20411;-71
2023/03/10 00:18:45;;;;;;;49.95;26.25;;;;;;;11.09;93.58;99594.81;4928186;29;20063;-71
2023/03/10 00:21:15;;;;;;;53.22;26.50;;;;;;;11.04;93.29;99592.19;4931477;29;20048;-71
2023/03/10 00:23:43;;;;;;;50.17;25.48;;;;;;;11.11;92.86;99584.34;4923460;29;20048;-70
2023/03/10 00:26:13;;;;;;;52.42;26.30;;;;;;;11.22;91.80;99579.47;4932846;29;20052;-71
2023/03/10 00:28:41;;;;;;;48.80;26.40;;;;;;;11.25;90.57;99587.06;4917437;29;20063;-71
2023/03/10 00:31:12;;;;;;;44.70;23.98;;;;;;;11.19;89.70;99582.81;4918297;29;20411;-71
2023/03/10 00:33:40;;;;;;;41.85;23.02;;;;;;;11.24;90.06;99595.59;4931786;29;20059;-71
2023/03/10 00:36:10;;;;;;;38.88;21.95;;;;;;;11.22;89.35;99593.16;4916104;29;20411;-71
2023/03/10 00:38:39;;;;;;;44.33;21.88;;;;;;;11.12;89.72;99582.44;4928602;29;20064;-71
2023/03/10 00:41:10;;;;;;;41.00;22.70;;;;;;;11.12;89.08;99579.69;4932998;29;20395;-71
2023/03/10 00:43:39;;;;;;;44.85;23.48;;;;;;;11.16;89.20;99583.44;4910742;29;20546;-71
2023/03/10 00:46:07;;;;;;;39.25;21.88;;;;;;;11.09;89.41;99580.34;4913804;29;20051;-71
2023/03/10 00:48:36;;;;;;;41.78;21.35;;;;;;;11.15;88.46;99576.38;4955642;29;20055;-70
2023/03/10 00:51:04;;;;;;;41.00;21.33;;;;;;;11.18;88.33;99583.94;4946662;29;20056;-71
2023/03/10 00:53:34;;;;;;;42.50;21.38;;;;;;;11.19;88.14;99577.34;4918959;29;20129;-72
2023/03/10 00:56:02;;;;;;;40.35;20.67;;;;;;;11.24;88.04;99569.00;4935769;29;20063;-71
2023/03/10 00:58:31;;;;;;;43.38;21.33;;;;;;;11.22;87.70;99563.03;4936676;29;20391;-71
2023/03/10 01:01:01;;;;;;;46.25;20.45;;;;;;;11.28;86.91;99559.06;4918753;29;20055;-70
2023/03/10 01:03:30;;;;;;;41.63;20.30;;;;;;;11.22;87.06;99554.00;4928674;29;20077;-71
2023/03/10 01:05:58;;;;;;;37.03;18.85;;;;;;;11.25;86.83;99547.94;4951048;29;20040;-71
2023/03/10 01:08:26;;;;;;;40.58;20.70;;;;;;;11.19;88.09;99541.75;4919065;29;20058;-71
2023/03/10 01:10:53;;;;;;;38.53;19.27;;;;;;;11.37;86.44;99529.00;4921710;29;20534;-71
2023/03/10 01:13:21;;;;;;;33.20;19.40;;;;;;;11.29;86.66;99532.47;4917235;29;20048;-71
2023/03/10 01:15:49;;;;;;;36.00;19.13;;;;;;;11.31;86.48;99527.50;4926308;29;20059;-71
2023/03/10 01:18:21;;;;;;;43.38;20.73;;;;;;;11.38;86.42;99518.84;4917971;29;20048;-71
2023/03/10 01:20:49;;;;;;;33.58;18.48;;;;;;;11.45;86.06;99512.94;4935044;29;20383;-72
2023/03/10 01:23:20;;;;;;;32.83;19.20;;;;;;;11.49;86.06;99519.41;4918454;29;20062;-71
2023/03/10 01:25:49;;;;;;;36.70;19.45;;;;;;;11.40;86.84;99517.41;4935290;29;20063;-71
2023/03/10 01:28:19;;;;;;;36.70;18.88;;;;;;;11.62;84.96;99504.00;4918356;29;20040;-71
2023/03/10 01:30:47;;;;;;;41.28;20.65;;;;;;;11.66;85.00;99494.88;4934960;29;20066;-72
2023/03/10 01:33:16;;;;;;;35.35;19.15;;;;;;;11.67;85.10;99498.41;4934694;29;20063;-71
2023/03/10 01:35:44;;;;;;;33.42;19.02;;;;;;;11.69;85.36;99496.19;4921783;29;20403;-71
2023/03/10 01:38:12;;;;;;;43.08;19.90;;;;;;;11.74;85.26;99487.00;4916319;29;20063;-71
2023/03/10 01:40:47;;;;;;;34.35;19.02;;;;;;;11.81;85.17;99488.16;4917422;29;20055;-70
2023/03/10 01:43:16;;;;;;;;;;;;;;;11.86;84.26;99480.91;4901906;29;20063;-70
2023/03/10 01:45:43;;;;;;;36.25;19.83;;;;;;;11.94;83.68;99485.66;4920105;29;19930;-70
2023/03/10 01:48:16;;;;;;;35.15;19.58;;;;;;;12.00;83.33;99487.13;4900000;29;20491;-71
2023/03/10 01:50:47;;;;;;;36.47;19.75;;;;;;;12.02;83.72;99482.13;4899197;29;20059;-71
2023/03/10 01:53:18;;;;;;;36.30;20.10;;;;;;;12.03;83.63;99463.75;4907824;29;20529;-71
2023/03/10 01:55:53;;;;;;;36.17;20.15;;;;;;;12.02;83.33;99454.69;4935416;29;20398;-71
2023/03/10 01:58:25;;;;;;;37.00;20.40;;;;;;;11.83;84.79;99446.72;4917331;29;20056;-71
2023/03/10 02:00:54;;;;;;;40.13;20.77;;;;;;;11.77;85.32;99445.25;4921360;29;20063;-72
2023/03/10 02:03:29;;;;;;;36.38;19.27;;;;;;;11.60;86.64;99443.25;4899113;29;20056;-72
2023/03/10 02:06:01;;;;;;;36.22;20.55;;;;;;;11.60;87.09;99438.59;4899226;29;20059;-71
2023/03/10 02:08:36;;;;;;;35.55;19.65;;;;;;;11.58;86.67;99431.78;4926345;29;20117;-72
2023/03/10 02:11:05;;;;;;;33.10;19.60;;;;;;;11.42;87.85;99422.06;4934224;29;20531;-71
2023/03/10 02:13:33;;;;;;;41.08;20.02;;;;;;;11.38;86.99;99420.22;4917794;29;20059;-71
2023/03/10 02:16:01;;;;;;;36.88;19.63;;;;;;;11.51;86.16;99418.53;4926408;29;20059;-72
2023/03/10 02:18:29;;;;;;;41.58;20.67;;;;;;;11.52;85.91;99418.22;4934932;29;20497;-71
2023/03/10 02:21:16;;;;;;;35.28;18.83;;;;;;;11.45;86.18;99417.06;4933875;29;20064;-71
2023/03/10 02:24:10;;;;;;;42.78;20.65;;;;;;;11.37;87.57;99407.66;4901425;29;20072;-72
2023/03/10 02:27:00;;;;;;;41.65;19.67;;;;;;;11.31;87.00;99409.75;4933785;29;20514;-71
2023/03/10 02:29:56;;;;;;;33.75;19.55;;;;;;;11.21;87.45;99408.09;4930384;29;20499;-72
2023/03/10 02:32:34;;;;;;;36.25;19.80;;;;;;;11.09;88.02;99399.63;4899617;29;20048;-71
2023/03/10 02:35:03;;;;;;;35.10;20.00;;;;;;;10.90;89.32;99403.34;4902458;29;20373;-72
2023/03/10 02:37:34;;;;;;;41.75;20.58;;;;;;;10.73;89.96;99402.13;4916061;29;20052;-72
2023/03/10 02:40:22;;;;;;;36.30;18.98;;;;;;;10.75;90.21;99404.53;4917423;29;20056;-71
2023/03/10 02:42:51;;;;;;;38.05;21.00;;;;;;;10.80;90.30;99407.13;4932498;29;20423;-70
2023/03/10 02:45:18;;;;;;;39.65;20.63;;;;;;;10.81;90.89;99407.97;4935185;29;20054;-71
2023/03/10 02:47:46;;;;;;;36.75;19.83;;;;;;;10.81;89.94;99407.97;4953010;29;20062;-71
2023/03/10 02:50:16;;;;;;;40.88;19.25;;;;;;;10.80;90.30;99400.88;4941880;29;20056;-71
2023/03/10 02:52:50;;;;;;;34.17;19.02;;;;;;;10.81;89.96;99402.50;4933842;29;20499;-71
2023/03/10 02:55:18;;;;;;;35.47;19.50;;;;;;;10.84;89.54;99397.19;4917739;29;20483;-72
2023/03/10 02:57:47;;;;;;;39.53;20.15;;;;;;;11.11;87.50;99389.16;4934857;29;20051;-71
2023/03/10 03:00:16;;;;;;;32.63;17.33;;;;;;;11.15;87.26;99387.44;4933562;29;20060;-71
2023/03/10 03:02:44;;;;;;;35.17;17.92;;;;;;;11.23;86.20;99385.84;4948378;29;20047;-71
2023/03/10 03:05:12;;;;;;;34.10;17.38;;;;;;;11.10;87.14;99377.41;4953879;29;20390;-70
2023/03/10 03:07:40;;;;;;;35.83;19.17;;;;;;;11.07;87.02;99378.03;4953192;29;20399;-71
2023/03/10 03:10:08;;;;;;;30.98;16.90;;;;;;;11.12;87.11;99350.53;4953841;29;20047;-71
2023/03/10 03:12:36;;;;;;;34.13;16.02;;;;;;;11.12;87.74;99363.41;4936347;29;20066;-71
2023/03/10 03:15:04;;;;;;;33.45;18.15;;;;;;;11.24;87.49;99371.84;4953509;29;20492;-71
2023/03/10 03:17:33;;;;;;;33.25;18.58;;;;;;;11.46;85.97;99358.41;4891149;29;20075;-71
2023/03/10 03:20:10;;;;;;;30.33;16.98;;;;;;;11.41;85.41;99362.09;4898388;29;20048;-71
2023/03/10 03:22:44;;;;;;;28.13;17.35;;;;;;;11.45;85.23;99352.13;4914651;29;20068;-71
2023/03/10 03:25:16;;;;;;;35.88;18.25;;;;;;;11.50;85.33;99352.00;4898307;29;20056;-72
2023/03/10 03:27:45;;;;;;;31.50;16.73;;;;;;;11.45;85.87;99349.41;4898367;29;20060;-71
2023/03/10 03:30:26;;;;;;;36.78;16.77;;;;;;;11.42;85.97;99333.56;4915330;29;20392;-71
2023/03/10 03:32:57;;;;;;;33.25;17.05;;;;;;;11.33;87.14;99340.97;4902884;29;20048;-71
2023/03/10 03:35:29;;;;;;;31.25;17.38;;;;;;;11.29;87.86;99341.59;4946394;29;20410;-71
2023/03/10 03:37:57;;;;;;;34.92;18.30;;;;;;;11.39;86.76;99342.44;4939549;29;20055;-72
2023/03/10 03:40:27;;;;;;;32.67;17.95;;;;;;;11.51;86.15;99326.22;4940111;29;20055;-71
2023/03/10 03:42:56;;;;;;;33.88;17.98;;;;;;;11.63;85.77;99333.81;4905554;29;20439;-71
2023/03/10 03:45:26;;;;;;;31.42;17.73;;;;;;;11.38;86.78;99332.59;4921496;29;20056;-72
2023/03/10 03:47:55;;;;;;;32.00;16.80;;;;;;;11.41;86.44;99324.56;4920172;29;20071;-70
2023/03/10 03:50:24;;;;;;;34.00;16.50;;;;;;;11.43;86.65;99322.31;4920395;29;20052;-72
2023/03/10 03:52:56;;;;;;;31.17;17.05;;;;;;;11.43;86.47;99329.72;4920126;29;20055;-71
2023/03/10 03:55:28;;;;;;;33.58;16.52;;;;;;;11.54;86.61;99325.56;4917081;29;20052;-71
2023/03/10 03:57:56;;;;;;;39.75;17.30;;;;;;;11.54;85.93;99320.09;4907685;29;20060;-71
2023/03/10 04:00:24;;;;;;;30.08;16.00;;;;;;;11.53;86.06;99318.47;4936040;29;20055;-70
2023/03/10 04:03:00;;;;;;;29.30;16.67;;;;;;;11.43;86.68;99313.28;4900954;29;20122;-71
2023/03/10 04:05:29;;;;;;;31.58;17.10;;;;;;;11.59;86.41;99321.06;4901510;29;20487;-71
2023/03/10 04:07:57;;;;;;;29.35;16.67;;;;;;;11.58;85.69;99308.50;4918617;29;20051;-71
2023/03/10 04:10:28;;;;;;;35.70;16.50;;;;;;;11.72;85.30;99311.91;4900925;29;20154;-71
2023/03/10 04:12:56;;;;;;;32.60;16.85;;;;;;;11.69;85.82;99305.13;4901526;29;20592;-71
2023/03/10 04:15:25;;;;;;;29.48;16.13;;;;;;;11.79;85.09;99311.44;4903218;29;20052;-71
2023/03/10 04:17:53;;;;;;;29.80;16.48;;;;;;;11.78;85.22;99298.88;4918233;29;20055;-71
2023/03/10 04:20:21;;;;;;;30.48;17.13;;;;;;;11.86;84.91;99300.81;4901316;29;20200;-71
2023/03/10 04:22:51;;;;;;;33.88;18.13;;;;;;;11.98;85.23;99302.13;4901364;29;20055;-71
2023/03/10 04:25:23;;;;;;;35.05;17.10;;;;;;;11.90;84.42;99296.31;4900438;29;20063;-71
2023/03/10 04:27:51;;;;;;;30.50;16.95;;;;;;;11.95;84.34;99296.16;4901416;29;20056;-71
2023/03/10 04:30:19;;;;;;;31.58;16.20;;;;;;;11.92;84.36;99291.31;4900611;29;20055;-71
2023/03/10 04:32:49;;;;;;;37.22;17.23;;;;;;;11.81;85.12;99290.81;4901184;29;20077;-72
2023/03/10 04:35:20;;;;;;;33.22;16.55;;;;;;;11.85;85.04;99285.50;4910582;29;20039;-71
2023/03/10 04:37:48;;;;;;;31.85;16.95;;;;;;;11.89;84.74;99271.97;4927141;29;20515;-71
2023/03/10 04:40:16;;;;;;;34.60;16.67;;;;;;;11.83;85.30;99272.09;4918200;29;20048;-71
2023/03/10 04:42:44;;;;;;;33.33;16.90;;;;;;;11.85;86.78;99260.00;4900084;29;20060;-71
2023/03/10 04:45:13;;;;;;;34.38;17.42;;;;;;;11.79;85.94;99260.16;4903098;29;20419;-71
2023/03/10 04:47:42;;;;;;;35.22;16.90;;;;;;;11.74;85.78;99254.88;4919140;29;20048;-71
2023/03/10 04:50:16;;;;;;;36.38;17.15;;;;;;;11.79;85.51;99254.69;4917063;29;20059;-71
2023/03/10 04:52:46;;;;;;;30.08;16.08;;;;;;;11.79;85.59;99238.25;4900954;29;20044;-71
2023/03/10 04:55:14;;;;;;;41.65;17.98;;;;;;;11.81;85.44;99236.00;4916907;29;20048;-71
2023/03/10 04:57:42;;;;;;;32.58;16.13;;;;;;;11.81;85.27;99235.19;4899982;29;20409;-72
2023/03/10 05:00:11;;;;;;;33.95;17.10;;;;;;;11.77;85.64;99231.47;4912129;29;20043;-71
2023/03/10 05:02:40;;;;;;;35.92;16.58;;;;;;;11.80;85.68;99217.94;4954922;29;20067;-71
2023/03/10 05:05:09;;;;;;;33.58;16.23;;;;;;;11.73;86.48;99214.06;4948033;29;20132;-71
2023/03/10 05:07:40;;;;;;;27.95;15.85;;;;;;;11.73;85.66;99192.16;4918764;29;20498;-71
2023/03/10 05:10:09;;;;;;;28.80;16.23;;;;;;;11.73;86.85;99183.94;4935817;29;20055;-71
2023/03/10 05:12:38;;;;;;;31.45;16.90;;;;;;;11.63;85.94;99185.06;4919418;29;20706;-71
2023/03/10 05:15:07;;;;;;;32.22;17.50;;;;;;;11.68;86.12;99184.88;4918166;29;20427;-71
2023/03/10 05:17:35;;;;;;;30.65;16.65;;;;;;;11.60;86.57;99172.78;4913736;29;20059;-71
2023/03/10 05:20:06;;;;;;;31.00;15.30;;;;;;;11.68;85.63;99157.47;4934910;29;20060;-70
2023/03/10 05:22:36;;;;;;;30.60;15.68;;;;;;;11.72;85.90;99172.16;4900463;29;20048;-71
2023/03/10 05:25:09;;;;;;;33.72;16.70;;;;;;;11.77;85.87;99174.72;4900276;29;20487;-72
2023/03/10 05:27:38;;;;;;;32.83;17.08;;;;;;;11.77;85.37;99173.91;4900381;29;20051;-72
2023/03/10 05:30:07;;;;;;;30.40;16.00;;;;;;;11.76;85.42;99166.81;4899386;29;20059;-72
2023/03/10 05:32:36;;;;;;;29.35;15.65;;;;;;;11.59;86.40;99167.63;4899740;29;20056;-71
2023/03/10 05:35:05;;;;;;;28.05;15.15;;;;;;;11.53;86.57;99170.53;4915204;29;20058;-71
2023/03/10 05:37:38;;;;;;;29.70;15.80;;;;;;;11.42;87.09;99166.47;4907274;29;20056;-71
2023/03/10 05:40:13;;;;;;;31.92;16.85;;;;;;;11.40;87.58;99155.84;4916463;29;20054;-71
2023/03/10 05:42:41;;;;;;;33.42;16.73;;;;;;;11.34;87.98;99159.06;4907294;29;20048;-71
2023/03/10 05:45:09;;;;;;;31.73;16.52;;;;;;;11.41;88.40;99170.34;4900569;29;20059;-70
2023/03/10 05:47:38;;;;;;;31.25;16.48;;;;;;;11.47;87.45;99165.50;4902595;29;20059;-72
2023/03/10 05:50:08;;;;;;;32.70;15.68;;;;;;;11.61;87.23;99166.19;4913016;29;20051;-71
2023/03/10 05:52:38;;;;;;;31.75;15.93;;;;;;;11.75;86.58;99166.03;4920084;29;20062;-70
2023/03/10 05:55:11;;;;;;;36.42;16.02;;;;;;;11.73;86.38;99162.00;4912993;29;20039;-71
2023/03/10 05:57:40;;;;;;;30.33;16.83;;;;;;;11.76;86.31;99156.69;4906285;29;20052;-71
2023/03/10 06:00:13;;;;;;;31.50;16.85;;;;;;;11.80;86.36;99157.66;4899487;29;20067;-72
2023/03/10 06:02:44;;;;;;;33.85;15.57;;;;;;;11.76;86.57;99156.69;4898341;29;20602;-70
2023/03/10 06:05:12;;;;;;;29.45;15.93;;;;;;;11.91;85.73;99158.13;4915151;29;20063;-71
2023/03/10 06:07:40;;;;;;;30.80;16.00;;;;;;;12.04;84.69;99159.13;4915502;29;20044;-72
2023/03/10 06:10:09;;;;;;;34.55;17.63;;;;;;;12.06;84.35;99153.28;4917321;29;20044;-71
2023/03/10 06:12:37;;;;;;;35.80;18.58;;;;;;;12.17;84.40;99154.56;4924441;29;20059;-72
2023/03/10 06:15:06;;;;;;;39.05;16.73;;;;;;;12.21;84.05;99150.03;4925116;29;20051;-72
2023/03/10 06:17:34;;;;;;;30.35;16.65;;;;;;;12.28;83.63;99151.47;4918604;29;20048;-73
2023/03/10 06:20:03;;;;;;;32.10;16.13;;;;;;;12.23;84.28;99152.47;4914979;29;20400;-73
2023/03/10 06:22:31;;;;;;;34.33;16.90;;;;;;;12.27;83.97;99152.59;4915339;29;20052;-73
2023/03/10 06:24:59;;;;;;;29.05;15.25;;;;;;;12.21;84.60;99160.19;4920292;29;20043;-73
2023/03/10 06:27:29;;;;;;;33.38;17.33;;;;;;;12.29;84.63;99144.84;4926898;29;20381;-73
2023/03/10 06:29:57;;;;;;;33.38;16.00;;;;;;;12.16;84.87;99152.13;4915677;29;20048;-73
2023/03/10 06:32:25;;;;;;;28.35;15.40;;;;;;;12.22;84.77;99156.34;4915142;29;20065;-71
2023/03/10 06:34:53;;;;;;;32.33;16.15;;;;;;;12.32;83.95;99152.44;4914584;29;20060;-73
2023/03/10 06:37:21;;;;;;;27.05;14.82;;;;;;;12.44;83.65;99154.50;4914971;29;20055;-73
2023/03/10 06:39:49;;;;;;;30.55;15.30;;;;;;;12.39;83.87;99149.16;4925730;29;20039;-73
2023/03/10 06:42:16;;;;;;;37.33;15.98;;;;;;;12.29;85.12;99153.91;4918644;29;20036;-72
2023/03/10 06:44:44;;;;;;;29.33;16.45;;;;;;;12.32;85.47;99147.75;4932039;29;20051;-75
2023/03/10 06:47:15;;;;;;;31.55;16.90;;;;;;;12.42;84.26;99154.03;4933156;29;20510;-75
2023/03/10 06:49:43;;;;;;;33.00;16.63;;;;;;;12.38;84.82;99151.13;4917327;29;20052;-74
2023/03/10 06:52:11;;;;;;;28.17;15.35;;;;;;;12.46;85.37;99149.50;4934248;29;20403;-74
2023/03/10 06:54:39;;;;;;;25.92;15.48;;;;;;;12.59;84.82;99153.16;4934528;29;20589;-75
2023/03/10 06:57:07;;;;;;;30.88;17.42;;;;;;;12.74;83.69;99151.78;4933695;29;20056;-74
2023/03/10 06:59:34;;;;;;;28.70;15.20;;;;;;;12.68;84.21;99150.38;4934615;29;20065;-74
2023/03/10 07:02:02;;;;;;;29.90;16.10;;;;;;;12.78;83.44;99139.03;4933674;29;20052;-74
2023/03/10 07:04:30;;;;;;;31.92;16.33;;;;;;;12.99;82.92;99141.00;4934713;29;20051;-74
2023/03/10 07:06:58;;;;;;;28.85;16.73;;;;;;;13.23;81.89;99137.66;4938416;29;20486;-74
2023/03/10 07:09:26;;;;;;;30.92;16.77;;;;;;;13.08;82.67;99122.56;4937613;29;20052;-74
2023/03/10 07:11:54;;;;;;;32.70;16.17;;;;;;;13.43;81.62;99129.75;4937381;29;20063;-74
2023/03/10 07:14:22;;;;;;;28.45;15.90;;;;;;;13.56;80.93;99130.66;4937690;29;20056;-74
2023/03/10 07:16:50;;;;;;;29.88;15.73;;;;;;;13.52;80.56;99129.72;4937599;29;20052;-74
2023/03/10 07:19:18;;;;;;;32.67;16.77;;;;;;;13.54;81.10;99132.94;4937076;29;20052;-74
2023/03/10 07:21:45;;;;;;;28.33;14.88;;;;;;;13.74;79.66;99136.78;4938044;29;20043;-74
2023/03/10 07:24:13;;;;;;;31.95;16.33;;;;;;;13.66;80.47;99127.50;4938064;29;20499;-74
2023/03/10 07:26:41;;;;;;;27.02;15.23;;;;;;;13.72;80.16;99113.56;4938117;29;20055;-74
2023/03/10 07:29:09;;;;;;;29.83;15.05;;;;;;;13.87;78.81;99112.91;4937041;29;20063;-74
2023/03/10 07:31:37;;;;;;;28.98;14.93;;;;;;;13.89;78.60;99112.56;4936951;29;20048;-74
2023/03/10 07:34:05;;;;;;;28.25;15.00;;;;;;;14.14;77.43;99113.47;4936698;29;20062;-75
2023/03/10 07:36:33;;;;;;;26.52;15.32;;;;;;;14.24;77.11;99102.00;4920539;29;20055;-75
2023/03/10 07:39:01;;;;;;;31.17;15.73;;;;;;;14.27;77.58;99091.47;4937243;29;20491;-75
2023/03/10 07:41:29;;;;;;;30.90;16.38;;;;;;;14.40;76.77;99089.53;4937705;29;20048;-75
2023/03/10 07:43:57;;;;;;;30.20;15.15;;;;;;;14.45;76.96;99090.13;4919504;29;20063;-75
2023/03/10 07:46:24;;;;;;;28.60;15.15;;;;;;;14.81;75.29;99095.22;4937017;29;20067;-75
2023/03/10 07:48:54;;;;;;;29.20;14.25;;;;;;;14.96;73.47;99080.72;4936722;29;20508;-75
2023/03/10 07:51:22;;;;;;;28.33;15.10;;;;;;;15.09;72.56;99080.69;4937020;29;20058;-75
2023/03/10 07:53:50;;;;;;;30.23;15.60;;;;;;;15.21;74.11;99079.88;4937524;29;20495;-75
2023/03/10 07:56:18;;;;;;;31.88;16.02;;;;;;;15.18;73.33;99071.16;4937559;29;20043;-75
2023/03/10 07:58:46;;;;;;;34.88;15.43;;;;;;;15.46;73.04;99075.09;4937069;29;20074;-74
2023/03/10 08:01:17;;;;;;;28.02;15.30;;;;;;;15.87;71.40;99079.75;4936548;29;20059;-75
2023/03/10 08:03:46;;;;;;;33.67;15.73;;;;;;;16.09;70.99;99076.41;4936934;29;20503;-75
2023/03/10 08:06:25;;;;;;;27.92;14.13;;;;;;;16.73;69.58;99080.34;4936730;29;20044;-75
2023/03/10 08:08:54;;;;;;;24.60;13.18;;;;;;;16.78;67.27;99074.56;4936856;29;20058;-75
2023/03/10 08:11:22;;;;;;;23.73;13.70;;;;;;;16.61;66.77;99076.53;4936526;29;20055;-75
2023/03/10 08:13:50;;;;;;;28.00;13.38;;;;;;;16.61;67.03;99079.28;4937094;29;20047;-75
2023/03/10 08:16:20;;;;;;;24.25;13.63;;;;;;;16.91;67.28;99075.22;4935590;29;20060;-75
2023/03/10 08:18:52;;;;;;;23.85;12.00;;;;;;;16.70;66.25;99073.56;4937179;29;20052;-75
2023/03/10 08:21:20;;;;;;;24.58;12.02;;;;;;;16.33;67.14;99063.63;4919861;29;20051;-76
2023/03/10 08:23:48;;;;;;;19.33;11.45;;;;;;;16.10;68.73;99061.50;4936481;29;20059;-75
2023/03/10 08:26:17;;;;;;;20.98;11.77;;;;;;;16.09;69.02;99048.03;4935633;29;20044;-75
2023/03/10 08:28:46;;;;;;;21.60;10.88;;;;;;;16.14;68.99;99050.53;4935742;29;20062;-75
2023/03/10 08:31:17;;;;;;;26.02;11.65;;;;;;;16.27;68.81;99044.94;4936847;29;20523;-75
2023/03/10 08:33:47;;;;;;;22.17;11.57;;;;;;;16.33;68.95;99038.78;4936000;29;20048;-76
2023/03/10 08:36:18;;;;;;;21.30;11.65;;;;;;;16.55;67.11;99033.78;4935931;29;20055;-76
2023/03/10 08:38:47;;;;;;;21.50;11.57;;;;;;;16.47;68.36;99034.78;4919598;29;20048;-75
2023/03/10 08:41:21;;;;;;;23.88;10.95;;;;;;;16.36;68.03;99031.75;4936092;29;20594;-76
2023/03/10 08:43:51;;;;;;;20.98;11.30;;;;;;;16.42;68.77;99026.75;4935510;29;20060;-75
2023/03/10 08:46:20;;;;;;;20.77;10.85;;;;;;;16.70;67.42;99028.56;4935598;29;20407;-75
2023/03/10 08:48:48;;;;;;;18.65;11.02;;;;;;;16.80;68.12;99028.03;4935557;29;20052;-75
2023/03/10 08:51:17;;;;;;;22.45;11.80;;;;;;;16.30;70.02;99019.38;4935105;29;20054;-76
2023/03/10 08:53:47;;;;;;;23.52;11.40;;;;;;;16.52;69.14;99028.97;4935094;29;20043;-75
2023/03/10 08:56:16;;;;;;;20.40;11.07;;;;;;;17.05;67.38;99030.56;4935560;29;20055;-76
2023/03/10 08:58:45;;;;;;;21.52;11.40;;;;;;;16.92;67.60;99027.91;4935175;29;20144;-76
2023/03/10 09:01:16;;;;;;;23.63;10.13;;;;;;;17.13;66.91;99035.09;4935555;29;20056;-75
2023/03/10 09:03:44;;;;;;;18.10;8.73;;;;;;;16.99;67.77;99032.78;4936076;29;20493;-75
2023/03/10 09:06:13;;;;;;;17.33;9.13;;;;;;;17.42;66.94;99037.63;4936132;29;20390;-75
2023/03/10 09:08:41;;;;;;;16.42;8.18;;;;;;;16.95;67.19;99029.13;4935354;29;20062;-75
2023/03/10 09:11:15;;;;;;;21.10;8.35;;;;;;;17.35;66.12;99030.00;4935226;29;20058;-75
2023/03/10 09:13:43;;;;;;;17.70;8.70;;;;;;;17.17;68.00;99026.88;4918811;29;20048;-76
2023/03/10 09:16:12;;;;;;;13.40;8.02;;;;;;;17.59;64.65;99028.09;4935741;29;20039;-76
2023/03/10 09:18:40;;;;;;;12.75;6.88;;;;;;;17.23;65.53;99027.38;4935028;29;20078;-76
2023/03/10 09:21:11;;;;;;;12.38;7.68;;;;;;;17.53;65.24;99024.81;4934494;29;20047;-76
2023/03/10 09:23:42;;;;;;;12.82;6.60;;;;;;;17.76;63.55;99021.31;4935385;29;20059;-75
2023/03/10 09:26:10;;;;;;;12.88;6.55;;;;;;;18.04;61.59;99024.94;4934634;29;20043;-76
2023/03/10 09:28:38;;;;;;;12.27;6.10;;;;;;;17.93;62.73;99008.16;4935670;29;20049;-76
2023/03/10 09:31:08;;;;;;;13.35;6.97;;;;;;;18.29;62.23;99013.53;4935761;29;20364;-75
2023/03/10 09:33:36;;;;;;;11.18;6.25;;;;;;;18.43;60.43;99005.41;4934418;29;20055;-75
2023/03/10 09:36:04;;;;;;;13.20;7.07;;;;;;;18.52;60.88;99005.97;4934754;29;20048;-76
2023/03/10 09:38:35;;;;;;;11.88;6.75;;;;;;;18.50;60.12;99007.50;4934596;29;20444;-76
2023/03/10 09:41:27;;;;;;;17.08;7.13;;;;;;;19.10;58.16;98997.69;4917811;29;20054;-76
2023/03/10 09:44:11;;;;;;;16.38;7.40;;;;;;;18.78;58.33;99006.34;4934940;29;20107;-76
2023/03/10 09:46:49;;;;;;;10.75;6.57;;;;;;;18.54;59.75;99002.84;4935089;29;20055;-76
2023/03/10 09:49:21;;;;;;;15.60;7.55;;;;;;;18.22;60.43;98986.50;4934479;29;20055;-75
2023/03/10 09:51:50;;;;;;;17.33;8.63;;;;;;;17.82;61.95;98992.16;4934115;29;20407;-76
2023/03/10 09:54:30;;;;;;;18.80;7.28;;;;;;;17.62;62.79;98985.06;4934287;29;20052;-76
2023/03/10 09:57:00;;;;;;;15.32;7.20;;;;;;;17.43;63.67;98983.94;4918222;29;20509;-74
2023/03/10 09:59:36;;;;;;;12.23;7.05;;;;;;;17.45;63.31;98987.94;4934523;29;20048;-75
2023/03/10 10:02:40;;;;;;;16.88;7.70;;;;;;;17.96;61.83;98994.38;4934249;29;20055;-75
2023/03/10 10:05:32;;;;;;;13.80;6.70;;;;;;;18.23;60.80;98983.38;4919378;29;20064;-75
2023/03/10 10:08:04;;;;;;;13.48;7.28;;;;;;;18.50;59.25;98985.34;4935049;29;20051;-75
2023/03/10 10:10:35;;;;;;;12.27;7.35;;;;;;;19.37;59.13;98975.41;4933818;29;20058;-73
2023/03/10 10:13:13;;;;;;;12.88;6.60;;;;;;;19.37;58.02;98978.19;4934898;29;20399;-74
2023/03/10 10:15:46;;;;;;;13.93;6.57;;;;;;;19.59;55.72;98970.91;4934111;29;20048;-74
2023/03/10 10:18:21;;;;;;;12.15;6.50;;;;;;;19.14;57.08;98967.22;4933978;29;20048;-75
2023/03/10 10:20:59;;;;;;;14.05;6.70;;;;;;;19.12;56.64;98964.03;4933822;29;20051;-75
2023/03/10 10:23:42;;;;;;;11.13;6.70;;;;;;;18.54;59.81;98967.59;4934672;29;20048;-75
2023/03/10 10:26:21;;;;;;;10.52;6.50;;;;;;;18.34;60.15;98972.44;4933718;29;20055;-75
2023/03/10 10:28:52;;;;;;;12.25;7.10;;;;;;;18.32;58.71;98958.19;4934035;29;20062;-75
2023/03/10 10:31:22;;;;;;;13.13;7.43;;;;;;;18.33;59.60;98959.00;4934639;29;20502;-74
2023/03/10 10:33:52;;;;;;;16.50;7.05;;;;;;;18.13;61.91;98948.00;4933556;29;20165;-74
2023/03/10 10:36:23;;;;;;;12.02;6.93;;;;;;;17.54;62.69;98942.66;4933846;29;20499;-74
2023/03/10 10:38:54;;;;;;;12.65;6.28;;;;;;;17.82;62.15;98947.91;4933432;29;20070;-75
2023/03/10 10:41:32;;;;;;;9.90;6.20;;;;;;;18.33;60.21;98950.69;4933435;29;20063;-75
2023/03/10 10:44:12;;;;;;;10.52;6.07;;;;;;;18.90;58.38;98938.78;4933803;29;20398;-75
2023/03/10 10:46:51;;;;;;;11.68;6.43;;;;;;;19.01;57.96;98936.94;4933953;29;20048;-75
2023/03/10 10:49:27;;;;;;;9.50;5.97;;;;;;;18.93;58.43;98935.28;4934546;29;20395;-75
2023/03/10 10:52:02;;;;;;;13.63;6.43;;;;;;;18.84;56.98;98943.06;4934376;29;20043;-75
2023/03/10 10:54:39;;;;;;;11.35;5.78;;;;;;;19.41;55.43;98934.63;4933748;29;20054;-75
2023/03/10 10:57:19;;;;;;;13.20;5.85;;;;;;;19.61;54.33;98926.91;4933747;29;20055;-75
2023/03/10 10:59:47;;;;;;;8.38;5.70;;;;;;;19.96;55.56;98943.50;4934367;29;20052;-75
2023/03/10 11:02:31;;;;;;;9.93;5.80;;;;;;;19.88;56.10;98925.94;4934384;29;20644;-75
2023/03/10 11:05:11;;;;;;;10.70;6.22;;;;;;;19.57;54.82;98936.38;4933410;29;20071;-75
2023/03/10 11:07:38;;;;;;;15.25;6.13;;;;;;;19.55;54.32;98933.97;4933387;29;20052;-76
2023/03/10 11:10:15;;;;;;;10.93;6.15;;;;;;;19.65;54.87;98926.94;4933466;29;20447;-75
2023/03/10 11:12:46;;;;;;;12.40;6.15;;;;;;;19.95;54.12;98936.31;4916277;29;20063;-75
2023/03/10 11:15:48;;;;;;;11.50;6.00;;;;;;;19.98;53.83;98941.13;4933627;29;20368;-75
2023/03/10 11:18:43;;;;;;;13.00;6.07;;;;;;;20.22;54.52;98928.63;4924516;29;20504;-75
2023/03/10 11:21:15;;;;;;;9.73;5.18;;;;;;;19.73;52.68;98931.38;4934158;29;20044;-76
2023/03/10 11:23:58;;;;;;;7.88;4.85;;;;;;;20.11;53.32;98925.78;4934383;29;20043;-80
2023/03/10 11:26:44;;;;;;;6.55;5.07;;;;;;;20.31;53.02;98922.72;4933163;29;20066;-80
2023/03/10 11:29:41;;;;;;;11.50;5.18;;;;;;;19.73;53.81;98919.47;4933533;29;20072;-80
2023/03/10 11:32:37;;;;;;;9.80;5.40;;;;;;;19.75;54.95;98914.38;4933552;29;20056;-80
2023/03/10 11:35:27;;;;;;;9.30;5.40;;;;;;;19.52;53.67;98909.78;4917150;29;20051;-80
2023/03/10 11:38:11;;;;;;;10.07;5.97;;;;;;;19.85;54.14;98916.41;4933417;29;20168;-81